Nacc Star — 9HA2073 — position and weather

sailwx.info

Track history (hours):
 
Tides and Currents Weather Stations Pressure Air Temp Water Temp Dewpoint Dewpoint Depression Visibility Wind Speed Wind Dir Waves Ship Positions

Nacc Star

Last reported at 2018-Feb-18 02:00 UTC. Time now 2018-Feb-19 22:17 UTC.
Position N 39°17' E 014°49'.

; draft 7.3 m.

Type: Cargo ship. MMSI: 249919000.

Date/timePositionNaut miles runAvg speedWind from/ knotsBaromVisibWave heightAir tempDewpointWater temp
2018-Feb-18 02:00N 39°17' E 014°49'3011.3
2018-Feb-17 23:21N 38°56' E 015°16'411.4
2018-Feb-17 22:59N 38°53' E 015°20'2311.5
2018-Feb-17 21:00N 38°36' E 015°40'11 0.3
2018-Feb-16 04:42N 38°26' E 015°45'2 8.2
2018-Feb-16 04:30N 38°26' E 015°43'5 9.7
2018-Feb-16 04:00N 38°25' E 015°37'5 9.9
2018-Feb-16 03:30N 38°24' E 015°31'5 9.8
2018-Feb-16 03:00N 38°23' E 015°25'5 9.9
2018-Feb-16 02:30N 38°23' E 015°19'510.1
2018-Feb-16 02:00N 38°22' E 015°12'510.4
2018-Feb-16 01:30N 38°21' E 015°06'5 9.9
2018-Feb-16 01:00N 38°20' E 014°60'510.2
2018-Feb-16 00:30N 38°20' E 014°53'510.0
2018-Feb-16 00:00N 38°20' E 014°47'34 9.7
2018-Feb-15 20:28N 38°25' E 014°03'5 9.9
2018-Feb-15 19:59N 38°26' E 013°57'5 9.8
2018-Feb-15 19:28N 38°27' E 013°51'5 9.7
2018-Feb-15 19:00N 38°28' E 013°45'5 9.6
2018-Feb-15 18:29N 38°28' E 013°39'5 9.5
2018-Feb-15 18:01N 38°29' E 013°33'5 9.6
2018-Feb-15 17:30N 38°30' E 013°27'5 9.6
2018-Feb-15 17:01N 38°31' E 013°21'510.0
2018-Feb-15 16:30N 38°32' E 013°15'5 9.9
2018-Feb-15 16:00N 38°33' E 013°09'5 9.7
2018-Feb-15 15:30N 38°33' E 013°02'510.1
2018-Feb-15 15:00N 38°34' E 012°56'171 9.7
2018-Feb-14 21:30N 39°01' E 009°20'510.5
2018-Feb-14 21:00N 39°04' E 009°14'510.6
2018-Feb-14 20:31N 39°07' E 009°09'4 8.2
2018-Feb-14 20:00N 39°11' E 009°06'3 6.4
2018-Feb-14 19:30N 39°13' E 009°03'0 0.0
2018-Feb-14 18:59N 39°13' E 009°03'0 0.0
2018-Feb-14 18:29N 39°13' E 009°03'0 0.0
2018-Feb-14 17:59N 39°13' E 009°03'0 0.0
2018-Feb-14 17:29N 39°13' E 009°03'0 0.0
2018-Feb-14 16:59N 39°13' E 009°03'0 0.0
2018-Feb-14 16:29N 39°13' E 009°03'0 0.0
2018-Feb-14 15:59N 39°13' E 009°03'0 0.0
2018-Feb-14 15:29N 39°13' E 009°03'0 0.0
2018-Feb-14 14:59N 39°13' E 009°03'0 0.0
2018-Feb-14 14:29N 39°13' E 009°03'0 0.0
2018-Feb-14 13:59N 39°13' E 009°03'0 0.0
2018-Feb-14 13:29N 39°13' E 009°03'0 0.0
2018-Feb-14 12:59N 39°13' E 009°03'0 0.0
2018-Feb-14 12:29N 39°13' E 009°03'0 0.0
2018-Feb-14 11:59N 39°13' E 009°03'0 0.0
2018-Feb-14 11:29N 39°13' E 009°03'0 0.0
2018-Feb-14 10:59N 39°13' E 009°03'0 0.0
2018-Feb-14 10:29N 39°13' E 009°03'0 0.0
2018-Feb-14 09:59N 39°13' E 009°03'0 0.0
2018-Feb-14 09:29N 39°13' E 009°03'0 0.0
2018-Feb-14 08:59N 39°13' E 009°03'0 0.0
2018-Feb-14 08:29N 39°13' E 009°03'0 0.0
2018-Feb-14 07:59N 39°13' E 009°03'0 0.0
2018-Feb-14 07:29N 39°13' E 009°03'0 0.0
2018-Feb-14 06:59N 39°13' E 009°03'0 0.0
2018-Feb-14 06:29N 39°13' E 009°03'0 0.0
2018-Feb-14 05:59N 39°13' E 009°03'0 0.0
2018-Feb-14 05:29N 39°13' E 009°03'0 0.0
2018-Feb-14 04:59N 39°13' E 009°03'0 0.0
2018-Feb-14 04:29N 39°13' E 009°03'0 0.0
2018-Feb-14 03:59N 39°13' E 009°03'0 0.0
2018-Feb-14 03:29N 39°13' E 009°03'0 0.0
2018-Feb-14 02:59N 39°13' E 009°03'0 0.0
2018-Feb-14 02:29N 39°13' E 009°03'0 0.0
2018-Feb-14 01:59N 39°13' E 009°03'0 0.0
2018-Feb-14 01:29N 39°13' E 009°03'0 0.0
2018-Feb-14 00:59N 39°13' E 009°03'0 0.0
2018-Feb-14 00:29N 39°13' E 009°03'0 0.0
2018-Feb-13 23:59N 39°13' E 009°03'0 0.0
2018-Feb-13 23:29N 39°13' E 009°03'0 0.0
2018-Feb-13 22:59N 39°13' E 009°03'0 0.0
2018-Feb-13 22:29N 39°13' E 009°03'0 0.0
2018-Feb-13 21:59N 39°13' E 009°03'0 0.0
2018-Feb-13 21:29N 39°13' E 009°03'0 0.0
2018-Feb-13 20:59N 39°13' E 009°03'0 0.0
2018-Feb-13 20:26N 39°13' E 009°03'0 0.0
2018-Feb-13 19:59N 39°13' E 009°03'0 0.0
2018-Feb-13 19:29N 39°13' E 009°03'0 0.0
2018-Feb-13 18:59N 39°13' E 009°03'0 0.0
2018-Feb-13 18:29N 39°13' E 009°03'0 0.0
2018-Feb-13 17:59N 39°13' E 009°03'0 0.0
2018-Feb-13 17:29N 39°13' E 009°03'0 0.0
2018-Feb-13 16:59N 39°13' E 009°03'0 0.0
2018-Feb-13 16:29N 39°13' E 009°03'0 0.0
2018-Feb-13 15:59N 39°13' E 009°03'0 0.0
2018-Feb-13 15:29N 39°13' E 009°03'0 0.0
2018-Feb-13 14:59N 39°13' E 009°03'0 0.0
2018-Feb-13 14:29N 39°13' E 009°03'0 0.0
2018-Feb-13 13:59N 39°13' E 009°03'0 0.0
2018-Feb-13 13:29N 39°13' E 009°03'0 0.0
2018-Feb-13 12:59N 39°13' E 009°03'0 0.0
2018-Feb-13 12:29N 39°13' E 009°03'0 0.0
2018-Feb-13 11:59N 39°13' E 009°03'0 0.0
2018-Feb-13 11:29N 39°13' E 009°03'0 0.0
2018-Feb-13 10:59N 39°13' E 009°03'0 0.0
2018-Feb-13 10:29N 39°13' E 009°03'0 0.0
2018-Feb-13 09:59N 39°13' E 009°03'0 0.0
2018-Feb-13 09:29N 39°13' E 009°03'0 0.0
2018-Feb-13 08:59N 39°13' E 009°03'0 0.0
2018-Feb-13 08:29N 39°13' E 009°03'0 0.0
2018-Feb-13 07:59N 39°13' E 009°03'0 0.0
2018-Feb-13 07:29N 39°13' E 009°03'0 0.0
2018-Feb-13 06:59N 39°13' E 009°03'0 0.0
2018-Feb-13 06:29N 39°13' E 009°03'0 0.0
2018-Feb-13 05:59N 39°13' E 009°03'0 0.0
2018-Feb-13 05:29N 39°13' E 009°03'0 0.0
2018-Feb-13 04:59N 39°13' E 009°03'0 0.0
2018-Feb-13 04:29N 39°13' E 009°03'0 0.0
2018-Feb-13 03:59N 39°13' E 009°03'0 0.0
2018-Feb-13 03:29N 39°13' E 009°03'0 0.0
2018-Feb-13 02:59N 39°13' E 009°03'0 0.0
2018-Feb-13 02:29N 39°13' E 009°03'0 0.0
2018-Feb-13 01:59N 39°13' E 009°03'0 0.0
2018-Feb-13 01:29N 39°13' E 009°03'0 0.0
2018-Feb-13 00:59N 39°13' E 009°03'0 0.0
2018-Feb-13 00:29N 39°13' E 009°03'0 0.0
2018-Feb-12 23:59N 39°13' E 009°03'0 0.0
2018-Feb-12 23:29N 39°13' E 009°03'0 0.0
2018-Feb-12 22:59N 39°13' E 009°03'0 0.0
2018-Feb-12 22:29N 39°13' E 009°03'0 0.0
2018-Feb-12 21:59N 39°13' E 009°03'0 0.0
2018-Feb-12 21:29N 39°13' E 009°03'0 0.0
2018-Feb-12 20:59N 39°13' E 009°03'0 0.0
2018-Feb-12 20:29N 39°13' E 009°03'0 0.0
2018-Feb-12 19:59N 39°13' E 009°03'0 0.0
2018-Feb-12 19:29N 39°13' E 009°03'0 0.0
2018-Feb-12 18:59N 39°13' E 009°03'0 0.0
2018-Feb-12 18:29N 39°13' E 009°03'0 0.0
2018-Feb-12 17:59N 39°13' E 009°03'0 0.0
2018-Feb-12 17:29N 39°13' E 009°03'0 0.0
2018-Feb-12 16:59N 39°13' E 009°03'0 0.0
2018-Feb-12 16:29N 39°13' E 009°03'0 0.0
2018-Feb-12 15:59N 39°13' E 009°03'0 0.0
2018-Feb-12 15:17N 39°13' E 009°03'0 0.0
2018-Feb-12 14:59N 39°13' E 009°03'0 0.0
2018-Feb-12 14:29N 39°13' E 009°03'0 0.0
2018-Feb-12 13:59N 39°13' E 009°03'0 0.0
2018-Feb-12 13:29N 39°13' E 009°03'0 0.0
2018-Feb-12 12:59N 39°13' E 009°03'0 0.0
2018-Feb-12 12:29N 39°13' E 009°03'0 0.0
2018-Feb-12 11:59N 39°13' E 009°03'0 0.0
2018-Feb-12 11:29N 39°13' E 009°03'0 0.0
2018-Feb-12 10:59N 39°13' E 009°03'0 0.0
2018-Feb-12 10:29N 39°13' E 009°03'0 0.0
2018-Feb-12 09:59N 39°13' E 009°03'0 0.0
2018-Feb-12 09:29N 39°13' E 009°03'0 0.0
2018-Feb-12 08:59N 39°13' E 009°03'0 0.0
2018-Feb-12 08:29N 39°13' E 009°03'0 0.0
2018-Feb-12 07:59N 39°13' E 009°03'0 0.0
2018-Feb-12 07:29N 39°13' E 009°03'0 0.0
2018-Feb-12 06:59N 39°13' E 009°03'0 0.1
2018-Feb-12 06:30N 39°13' E 009°03'3 5.8
2018-Feb-12 06:00N 39°11' E 009°06'0 0.5
2018-Feb-12 05:31N 39°11' E 009°07'1 2.0
2018-Feb-12 05:00N 39°10' E 009°06'3 6.7
2018-Feb-12 04:29N 39°06' E 009°08'4 7.9
2018-Feb-12 04:00N 39°03' E 009°10'4 8.6
2018-Feb-12 03:29N 38°60' E 009°13'510.5
2018-Feb-12 03:00N 38°56' E 009°18'22 4.3
2018-Feb-11 22:01N 38°44' E 008°54'011.2
2018-Feb-11 21:59N 38°44' E 008°54'611.1
2018-Feb-11 21:28N 38°45' E 008°46'316 9.7
2018-Feb-10 12:59N 43°11' E 005°00'510.6
2018-Feb-10 12:30N 43°16' E 004°60'611.1
2018-Feb-10 12:00N 43°21' E 004°58'4 7.0
2018-Feb-10 11:30N 43°24' E 005°01'0 0.6
2018-Feb-10 10:59N 43°24' E 005°01'0 0.0
2018-Feb-10 10:29N 43°24' E 005°01'0 0.0
2018-Feb-10 09:59N 43°24' E 005°01'0 0.0
2018-Feb-10 09:29N 43°24' E 005°01'0 0.0
2018-Feb-10 08:59N 43°24' E 005°01'0 0.0
2018-Feb-10 08:29N 43°24' E 005°01'0 0.0
2018-Feb-10 07:59N 43°24' E 005°01'0 0.0
2018-Feb-10 07:29N 43°24' E 005°01'0 0.0
2018-Feb-10 06:56N 43°24' E 005°01'0 0.0
2018-Feb-10 06:29N 43°24' E 005°01'0 0.0
2018-Feb-10 05:59N 43°24' E 005°01'0 0.0
2018-Feb-10 05:29N 43°24' E 005°01'0 0.0
2018-Feb-10 04:59N 43°24' E 005°01'0 0.0
2018-Feb-10 04:29N 43°24' E 005°01'0 0.0
2018-Feb-10 03:59N 43°24' E 005°01'0 0.0
2018-Feb-10 03:29N 43°24' E 005°01'0 0.0
2018-Feb-10 02:59N 43°24' E 005°01'0 0.0
2018-Feb-10 02:29N 43°24' E 005°01'0 0.0
2018-Feb-10 01:59N 43°24' E 005°01'0 0.0
2018-Feb-10 01:29N 43°24' E 005°01'0 0.0
2018-Feb-10 00:59N 43°24' E 005°01'0 0.0
2018-Feb-10 00:29N 43°24' E 005°01'0 0.0
2018-Feb-09 23:59N 43°24' E 005°01'0 0.0
2018-Feb-09 23:29N 43°24' E 005°01'0 0.0
2018-Feb-09 22:59N 43°24' E 005°01'0 0.0
2018-Feb-09 22:44N 43°24' E 005°01'  
Track history (hours):
 
Tides and Currents Weather Stations Pressure Air Temp Water Temp Dewpoint Dewpoint Depression Visibility Wind Speed Wind Dir Waves Ship Positions

Nacc Star

Last reported at 2018-Feb-18 02:00 UTC. Time now 2018-Feb-19 22:17 UTC.
Position N 39°17' E 014°49'.

; draft 7.3 m.

Type: Cargo ship. MMSI: 249919000.

Date/timePositionNaut miles runAvg speedWind from/ knotsBaromVisibWave heightAir tempDewpointWater temp
2018-Feb-18 02:00N 39°17' E 014°49'3011.3
2018-Feb-17 23:21N 38°56' E 015°16'411.4
2018-Feb-17 22:59N 38°53' E 015°20'2311.5
2018-Feb-17 21:00N 38°36' E 015°40'11 0.3
2018-Feb-16 04:42N 38°26' E 015°45'2 8.2
2018-Feb-16 04:30N 38°26' E 015°43'5 9.7
2018-Feb-16 04:00N 38°25' E 015°37'5 9.9
2018-Feb-16 03:30N 38°24' E 015°31'5 9.8
2018-Feb-16 03:00N 38°23' E 015°25'5 9.9
2018-Feb-16 02:30N 38°23' E 015°19'510.1
2018-Feb-16 02:00N 38°22' E 015°12'510.4
2018-Feb-16 01:30N 38°21' E 015°06'5 9.9
2018-Feb-16 01:00N 38°20' E 014°60'510.2
2018-Feb-16 00:30N 38°20' E 014°53'510.0
2018-Feb-16 00:00N 38°20' E 014°47'34 9.7
2018-Feb-15 20:28N 38°25' E 014°03'5 9.9
2018-Feb-15 19:59N 38°26' E 013°57'5 9.8
2018-Feb-15 19:28N 38°27' E 013°51'5 9.7
2018-Feb-15 19:00N 38°28' E 013°45'5 9.6
2018-Feb-15 18:29N 38°28' E 013°39'5 9.5
2018-Feb-15 18:01N 38°29' E 013°33'5 9.6
2018-Feb-15 17:30N 38°30' E 013°27'5 9.6
2018-Feb-15 17:01N 38°31' E 013°21'510.0
2018-Feb-15 16:30N 38°32' E 013°15'5 9.9
2018-Feb-15 16:00N 38°33' E 013°09'5 9.7
2018-Feb-15 15:30N 38°33' E 013°02'510.1
2018-Feb-15 15:00N 38°34' E 012°56'171 9.7
2018-Feb-14 21:30N 39°01' E 009°20'510.5
2018-Feb-14 21:00N 39°04' E 009°14'510.6
2018-Feb-14 20:31N 39°07' E 009°09'4 8.2
2018-Feb-14 20:00N 39°11' E 009°06'3 6.4
2018-Feb-14 19:30N 39°13' E 009°03'0 0.0
2018-Feb-14 18:59N 39°13' E 009°03'0 0.0
2018-Feb-14 18:29N 39°13' E 009°03'0 0.0
2018-Feb-14 17:59N 39°13' E 009°03'0 0.0
2018-Feb-14 17:29N 39°13' E 009°03'0 0.0
2018-Feb-14 16:59N 39°13' E 009°03'0 0.0
2018-Feb-14 16:29N 39°13' E 009°03'0 0.0
2018-Feb-14 15:59N 39°13' E 009°03'0 0.0
2018-Feb-14 15:29N 39°13' E 009°03'0 0.0
2018-Feb-14 14:59N 39°13' E 009°03'0 0.0
2018-Feb-14 14:29N 39°13' E 009°03'0 0.0
2018-Feb-14 13:59N 39°13' E 009°03'0 0.0
2018-Feb-14 13:29N 39°13' E 009°03'0 0.0
2018-Feb-14 12:59N 39°13' E 009°03'0 0.0
2018-Feb-14 12:29N 39°13' E 009°03'0 0.0
2018-Feb-14 11:59N 39°13' E 009°03'0 0.0
2018-Feb-14 11:29N 39°13' E 009°03'0 0.0
2018-Feb-14 10:59N 39°13' E 009°03'0 0.0
2018-Feb-14 10:29N 39°13' E 009°03'0 0.0
2018-Feb-14 09:59N 39°13' E 009°03'0 0.0
2018-Feb-14 09:29N 39°13' E 009°03'0 0.0
2018-Feb-14 08:59N 39°13' E 009°03'0 0.0
2018-Feb-14 08:29N 39°13' E 009°03'0 0.0
2018-Feb-14 07:59N 39°13' E 009°03'0 0.0
2018-Feb-14 07:29N 39°13' E 009°03'0 0.0
2018-Feb-14 06:59N 39°13' E 009°03'0 0.0
2018-Feb-14 06:29N 39°13' E 009°03'0 0.0
2018-Feb-14 05:59N 39°13' E 009°03'0 0.0
2018-Feb-14 05:29N 39°13' E 009°03'0 0.0
2018-Feb-14 04:59N 39°13' E 009°03'0 0.0
2018-Feb-14 04:29N 39°13' E 009°03'0 0.0
2018-Feb-14 03:59N 39°13' E 009°03'0 0.0
2018-Feb-14 03:29N 39°13' E 009°03'0 0.0
2018-Feb-14 02:59N 39°13' E 009°03'0 0.0
2018-Feb-14 02:29N 39°13' E 009°03'0 0.0
2018-Feb-14 01:59N 39°13' E 009°03'0 0.0
2018-Feb-14 01:29N 39°13' E 009°03'0 0.0
2018-Feb-14 00:59N 39°13' E 009°03'0 0.0
2018-Feb-14 00:29N 39°13' E 009°03'0 0.0
2018-Feb-13 23:59N 39°13' E 009°03'0 0.0
2018-Feb-13 23:29N 39°13' E 009°03'0 0.0
2018-Feb-13 22:59N 39°13' E 009°03'0 0.0
2018-Feb-13 22:29N 39°13' E 009°03'0 0.0
2018-Feb-13 21:59N 39°13' E 009°03'0 0.0
2018-Feb-13 21:29N 39°13' E 009°03'0 0.0
2018-Feb-13 20:59N 39°13' E 009°03'0 0.0
2018-Feb-13 20:26N 39°13' E 009°03'0 0.0
2018-Feb-13 19:59N 39°13' E 009°03'0 0.0
2018-Feb-13 19:29N 39°13' E 009°03'0 0.0
2018-Feb-13 18:59N 39°13' E 009°03'0 0.0
2018-Feb-13 18:29N 39°13' E 009°03'0 0.0
2018-Feb-13 17:59N 39°13' E 009°03'0 0.0
2018-Feb-13 17:29N 39°13' E 009°03'0 0.0
2018-Feb-13 16:59N 39°13' E 009°03'0 0.0
2018-Feb-13 16:29N 39°13' E 009°03'0 0.0
2018-Feb-13 15:59N 39°13' E 009°03'0 0.0
2018-Feb-13 15:29N 39°13' E 009°03'0 0.0
2018-Feb-13 14:59N 39°13' E 009°03'0 0.0
2018-Feb-13 14:29N 39°13' E 009°03'0 0.0
2018-Feb-13 13:59N 39°13' E 009°03'0 0.0
2018-Feb-13 13:29N 39°13' E 009°03'0 0.0
2018-Feb-13 12:59N 39°13' E 009°03'0 0.0
2018-Feb-13 12:29N 39°13' E 009°03'0 0.0
2018-Feb-13 11:59N 39°13' E 009°03'0 0.0
2018-Feb-13 11:29N 39°13' E 009°03'0 0.0
2018-Feb-13 10:59N 39°13' E 009°03'0 0.0
2018-Feb-13 10:29N 39°13' E 009°03'0 0.0
2018-Feb-13 09:59N 39°13' E 009°03'0 0.0
2018-Feb-13 09:29N 39°13' E 009°03'0 0.0
2018-Feb-13 08:59N 39°13' E 009°03'0 0.0
2018-Feb-13 08:29N 39°13' E 009°03'0 0.0
2018-Feb-13 07:59N 39°13' E 009°03'0 0.0
2018-Feb-13 07:29N 39°13' E 009°03'0 0.0
2018-Feb-13 06:59N 39°13' E 009°03'0 0.0
2018-Feb-13 06:29N 39°13' E 009°03'0 0.0
2018-Feb-13 05:59N 39°13' E 009°03'0 0.0
2018-Feb-13 05:29N 39°13' E 009°03'0 0.0
2018-Feb-13 04:59N 39°13' E 009°03'0 0.0
2018-Feb-13 04:29N 39°13' E 009°03'0 0.0
2018-Feb-13 03:59N 39°13' E 009°03'0 0.0
2018-Feb-13 03:29N 39°13' E 009°03'0 0.0
2018-Feb-13 02:59N 39°13' E 009°03'0 0.0
2018-Feb-13 02:29N 39°13' E 009°03'0 0.0
2018-Feb-13 01:59N 39°13' E 009°03'0 0.0
2018-Feb-13 01:29N 39°13' E 009°03'0 0.0
2018-Feb-13 00:59N 39°13' E 009°03'0 0.0
2018-Feb-13 00:29N 39°13' E 009°03'0 0.0
2018-Feb-12 23:59N 39°13' E 009°03'0 0.0
2018-Feb-12 23:29N 39°13' E 009°03'0 0.0
2018-Feb-12 22:59N 39°13' E 009°03'0 0.0
2018-Feb-12 22:29N 39°13' E 009°03'0 0.0
2018-Feb-12 21:59N 39°13' E 009°03'0 0.0
2018-Feb-12 21:29N 39°13' E 009°03'0 0.0
2018-Feb-12 20:59N 39°13' E 009°03'0 0.0
2018-Feb-12 20:29N 39°13' E 009°03'0 0.0
2018-Feb-12 19:59N 39°13' E 009°03'0 0.0
2018-Feb-12 19:29N 39°13' E 009°03'0 0.0
2018-Feb-12 18:59N 39°13' E 009°03'0 0.0
2018-Feb-12 18:29N 39°13' E 009°03'0 0.0
2018-Feb-12 17:59N 39°13' E 009°03'0 0.0
2018-Feb-12 17:29N 39°13' E 009°03'0 0.0
2018-Feb-12 16:59N 39°13' E 009°03'0 0.0
2018-Feb-12 16:29N 39°13' E 009°03'0 0.0
2018-Feb-12 15:59N 39°13' E 009°03'0 0.0
2018-Feb-12 15:17N 39°13' E 009°03'0 0.0
2018-Feb-12 14:59N 39°13' E 009°03'0 0.0
2018-Feb-12 14:29N 39°13' E 009°03'0 0.0
2018-Feb-12 13:59N 39°13' E 009°03'0 0.0
2018-Feb-12 13:29N 39°13' E 009°03'0 0.0
2018-Feb-12 12:59N 39°13' E 009°03'0 0.0
2018-Feb-12 12:29N 39°13' E 009°03'0 0.0
2018-Feb-12 11:59N 39°13' E 009°03'0 0.0
2018-Feb-12 11:29N 39°13' E 009°03'0 0.0
2018-Feb-12 10:59N 39°13' E 009°03'0 0.0
2018-Feb-12 10:29N 39°13' E 009°03'0 0.0
2018-Feb-12 09:59N 39°13' E 009°03'0 0.0
2018-Feb-12 09:29N 39°13' E 009°03'0 0.0
2018-Feb-12 08:59N 39°13' E 009°03'0 0.0
2018-Feb-12 08:29N 39°13' E 009°03'0 0.0
2018-Feb-12 07:59N 39°13' E 009°03'0 0.0
2018-Feb-12 07:29N 39°13' E 009°03'0 0.0
2018-Feb-12 06:59N 39°13' E 009°03'0 0.1
2018-Feb-12 06:30N 39°13' E 009°03'3 5.8
2018-Feb-12 06:00N 39°11' E 009°06'0 0.5
2018-Feb-12 05:31N 39°11' E 009°07'1 2.0
2018-Feb-12 05:00N 39°10' E 009°06'3 6.7
2018-Feb-12 04:29N 39°06' E 009°08'4 7.9
2018-Feb-12 04:00N 39°03' E 009°10'4 8.6
2018-Feb-12 03:29N 38°60' E 009°13'510.5
2018-Feb-12 03:00N 38°56' E 009°18'22 4.3
2018-Feb-11 22:01N 38°44' E 008°54'011.2
2018-Feb-11 21:59N 38°44' E 008°54'611.1
2018-Feb-11 21:28N 38°45' E 008°46'316 9.7
2018-Feb-10 12:59N 43°11' E 005°00'510.6
2018-Feb-10 12:30N 43°16' E 004°60'611.1
2018-Feb-10 12:00N 43°21' E 004°58'4 7.0
2018-Feb-10 11:30N 43°24' E 005°01'0 0.6
2018-Feb-10 10:59N 43°24' E 005°01'0 0.0
2018-Feb-10 10:29N 43°24' E 005°01'0 0.0
2018-Feb-10 09:59N 43°24' E 005°01'0 0.0
2018-Feb-10 09:29N 43°24' E 005°01'0 0.0
2018-Feb-10 08:59N 43°24' E 005°01'0 0.0
2018-Feb-10 08:29N 43°24' E 005°01'0 0.0
2018-Feb-10 07:59N 43°24' E 005°01'0 0.0
2018-Feb-10 07:29N 43°24' E 005°01'0 0.0
2018-Feb-10 06:56N 43°24' E 005°01'0 0.0
2018-Feb-10 06:29N 43°24' E 005°01'0 0.0
2018-Feb-10 05:59N 43°24' E 005°01'0 0.0
2018-Feb-10 05:29N 43°24' E 005°01'0 0.0
2018-Feb-10 04:59N 43°24' E 005°01'0 0.0
2018-Feb-10 04:29N 43°24' E 005°01'0 0.0
2018-Feb-10 03:59N 43°24' E 005°01'0 0.0
2018-Feb-10 03:29N 43°24' E 005°01'0 0.0
2018-Feb-10 02:59N 43°24' E 005°01'0 0.0
2018-Feb-10 02:29N 43°24' E 005°01'0 0.0
2018-Feb-10 01:59N 43°24' E 005°01'0 0.0
2018-Feb-10 01:29N 43°24' E 005°01'0 0.0
2018-Feb-10 00:59N 43°24' E 005°01'0 0.0
2018-Feb-10 00:29N 43°24' E 005°01'0 0.0
2018-Feb-09 23:59N 43°24' E 005°01'0 0.0
2018-Feb-09 23:29N 43°24' E 005°01'0 0.0
2018-Feb-09 22:59N 43°24' E 005°01'0 0.0
2018-Feb-09 22:44N 43°24' E 005°01'  

Dump ship's entire track history